Time;durP1;ratioP1;P1;durP2;ratioP2;P2;SDS_P1;SDS_P2;PMS_P1;PMS_P2;Temp;Humidity;BMP_temperature;BMP_pressure;BME280_temperature;BME280_humidity;BME280_pressure;Samples;Min_cycle;Max_cycle;Signal;HPM_P1;HPM_P2
2022/08/27 00:01:53;;;;;;;12.32;2.47;;;;;;;27.04;37.09;98175.47;5037756;28;20040;-71
2022/08/27 00:04:19;;;;;;;10.23;2.97;;;;;;;27.02;37.34;98181.06;5036901;28;20500;-71
2022/08/27 00:06:44;;;;;;;10.40;2.67;;;;;;;27.02;37.55;98177.59;5020804;28;20435;-71
2022/08/27 00:09:10;;;;;;;9.68;2.47;;;;;;;27.01;37.72;98176.78;5020632;28;20029;-71
2022/08/27 00:11:35;;;;;;;8.48;2.67;;;;;;;27.00;38.02;98172.47;5053883;28;20071;-71
2022/08/27 00:14:01;;;;;;;9.88;2.80;;;;;;;27.02;38.07;98180.28;5020342;28;20060;-71
2022/08/27 00:16:27;;;;;;;7.47;2.42;;;;;;;26.99;38.30;98170.03;5036454;28;20036;-72
2022/08/27 00:18:53;;;;;;;7.63;2.63;;;;;;;27.00;38.18;98177.03;5035978;28;20029;-72
2022/08/27 00:21:18;;;;;;;11.27;2.53;;;;;;;27.00;38.30;98179.69;5035845;28;20044;-71
2022/08/27 00:23:44;;;;;;;8.35;2.90;;;;;;;26.98;38.54;98176.41;5035685;28;20063;-72
2022/08/27 00:26:10;;;;;;;13.43;2.83;;;;;;;26.96;38.45;98175.84;5052273;28;20051;-71
2022/08/27 00:28:35;;;;;;;6.38;2.40;;;;;;;26.92;38.48;98177.41;5035499;28;20082;-71
2022/08/27 00:31:01;;;;;;;8.88;2.58;;;;;;;26.90;38.29;98177.63;5035122;28;20776;-71
2022/08/27 00:33:26;;;;;;;6.63;2.47;;;;;;;26.93;38.33;98179.84;5052045;28;20025;-70
2022/08/27 00:35:52;;;;;;;10.10;2.72;;;;;;;26.92;38.30;98167.50;5035635;28;20610;-75
2022/08/27 00:38:18;;;;;;;8.57;2.70;;;;;;;26.93;38.29;98179.00;5052360;28;20502;-72
2022/08/27 00:40:44;;;;;;;11.63;2.60;;;;;;;26.88;38.40;98171.69;5035506;28;20029;-70
2022/08/27 00:43:10;;;;;;;8.68;2.92;;;;;;;26.89;38.08;98179.47;5051915;28;20052;-72
2022/08/27 00:45:39;;;;;;;14.57;2.38;;;;;;;26.88;38.14;98180.53;5051750;28;20527;-72
2022/08/27 00:48:05;;;;;;;10.18;2.78;;;;;;;26.88;37.97;98180.53;5019967;28;20420;-72
2022/08/27 00:50:40;;;;;;;8.38;2.58;;;;;;;26.88;38.45;98182.41;5052904;28;20025;-72
2022/08/27 00:53:14;;;;;;;12.32;2.60;;;;;;;26.86;38.14;98171.91;5035010;28;20128;-72
2022/08/27 00:55:43;;;;;;;6.90;2.85;;;;;;;26.84;37.84;98170.53;5052742;28;20036;-72
2022/08/27 00:58:34;;;;;;;6.85;2.35;;;;;;;26.86;38.23;98182.63;5035447;28;20500;-72
2022/08/27 01:00:59;;;;;;;7.72;2.50;;;;;;;26.86;37.94;98179.94;5050111;28;20021;-70
2022/08/27 01:03:25;;;;;;;10.80;2.78;;;;;;;26.86;38.01;98177.28;5052551;28;20081;-71
2022/08/27 01:05:51;;;;;;;4.90;2.33;;;;;;;26.85;37.97;98177.50;5052164;28;20061;-71
2022/08/27 01:08:19;;;;;;;6.68;2.47;;;;;;;26.81;38.29;98177.19;5018489;28;20041;-71
2022/08/27 01:10:45;;;;;;;7.65;2.63;;;;;;;26.84;38.09;98174.03;5019478;28;20049;-71
2022/08/27 01:13:11;;;;;;;13.63;3.05;;;;;;;26.81;38.12;98174.50;5051609;28;20110;-71
2022/08/27 01:15:38;;;;;;;8.80;2.90;;;;;;;26.83;37.88;98176.94;5018883;28;20033;-71
2022/08/27 01:18:04;;;;;;;7.90;2.50;;;;;;;26.81;38.10;98177.19;5019303;28;20033;-71
2022/08/27 01:20:53;;;;;;;11.25;2.72;;;;;;;26.83;38.04;98166.22;5052037;28;20055;-71
2022/08/27 01:23:37;;;;;;;7.55;2.47;;;;;;;26.80;38.33;98166.69;5043235;28;20044;-72
2022/08/27 01:26:02;;;;;;;6.50;2.40;;;;;;;26.74;38.36;98159.59;5041832;28;20507;-71
2022/08/27 01:28:28;;;;;;;6.20;2.60;;;;;;;26.71;38.58;98152.88;5035521;28;20033;-71
2022/08/27 01:30:54;;;;;;;10.18;2.40;;;;;;;26.70;39.09;98160.06;5051715;28;20065;-71
2022/08/27 01:33:20;;;;;;;10.68;2.50;;;;;;;26.71;38.87;98159.03;5032771;28;20451;-71
2022/08/27 01:35:47;;;;;;;8.75;2.75;;;;;;;26.71;38.79;98158.25;5035433;28;20028;-72
2022/08/27 01:38:14;;;;;;;7.03;2.38;;;;;;;26.67;38.90;98152.53;5034381;28;20033;-71
2022/08/27 01:40:40;;;;;;;8.43;2.80;;;;;;;26.68;39.20;98156.03;5018547;28;20033;-71
2022/08/27 01:43:05;;;;;;;6.70;2.50;;;;;;;26.69;39.36;98161.16;5018270;28;20052;-71
2022/08/27 01:45:33;;;;;;;8.00;2.75;;;;;;;26.64;39.13;98155.63;5051769;28;20028;-71
2022/08/27 01:47:59;;;;;;;10.00;2.80;;;;;;;26.66;39.33;98158.94;5018196;28;20040;-71
2022/08/27 01:50:28;;;;;;;7.50;2.38;;;;;;;26.61;39.13;98152.63;5035094;28;20113;-71
2022/08/27 01:52:55;;;;;;;8.13;2.47;;;;;;;26.60;39.05;98156.34;5033138;28;20709;-71
2022/08/27 01:55:23;;;;;;;7.63;3.00;;;;;;;26.68;39.09;98156.84;5035724;28;20111;-73
2022/08/27 01:57:49;;;;;;;10.15;2.65;;;;;;;26.71;38.71;98163.59;5018567;28;20064;-73
2022/08/27 02:00:21;;;;;;;12.13;2.97;;;;;;;26.74;38.87;98162.28;5034906;28;20500;-71
2022/08/27 02:02:47;;;;;;;16.17;3.30;;;;;;;26.73;38.69;98155.31;5035748;28;20024;-71
2022/08/27 02:05:13;;;;;;;7.05;2.28;;;;;;;26.76;38.60;98163.69;5034578;28;20067;-71
2022/08/27 02:07:38;;;;;;;6.07;2.83;;;;;;;26.79;38.23;98163.22;5051516;28;20111;-72
2022/08/27 02:10:05;;;;;;;10.13;2.80;;;;;;;26.81;38.42;98160.31;5051861;28;20395;-71
2022/08/27 02:12:31;;;;;;;9.63;2.72;;;;;;;26.76;38.15;98152.97;5034528;28;20040;-71
2022/08/27 02:14:56;;;;;;;8.57;2.58;;;;;;;26.79;38.05;98151.69;5035238;28;20029;-71
2022/08/27 02:17:22;;;;;;;13.35;3.28;;;;;;;26.80;37.62;98158.66;5051846;28;20036;-71
2022/08/27 02:19:47;;;;;;;6.18;3.08;;;;;;;26.80;37.38;98161.34;5051441;28;20063;-71
2022/08/27 02:22:13;;;;;;;11.00;3.45;;;;;;;26.82;37.42;98165.44;5051880;28;20504;-72
2022/08/27 02:24:40;;;;;;;11.07;3.10;;;;;;;26.79;37.43;98163.22;5051588;28;20086;-71
2022/08/27 02:27:06;;;;;;;11.02;3.22;;;;;;;26.78;37.07;98166.13;5035527;28;20569;-71
2022/08/27 02:29:33;;;;;;;9.30;3.05;;;;;;;26.82;37.01;98173.47;5051412;28;20060;-71
2022/08/27 02:32:00;;;;;;;10.82;3.33;;;;;;;26.79;36.97;98171.25;5051552;28;20120;-71
2022/08/27 02:34:26;;;;;;;9.15;3.50;;;;;;;26.80;36.99;98177.41;5051883;28;20466;-71
2022/08/27 02:36:52;;;;;;;8.35;3.00;;;;;;;26.78;37.03;98174.16;5051948;28;20037;-71
2022/08/27 02:39:18;;;;;;;12.68;2.90;;;;;;;26.77;37.15;98165.28;5034958;28;20037;-71
2022/08/27 02:41:43;;;;;;;14.25;3.33;;;;;;;26.77;36.77;98167.97;5052857;28;20041;-71
2022/08/27 02:44:10;;;;;;;9.35;3.00;;;;;;;26.76;37.07;98163.69;5051193;28;20024;-71
2022/08/27 02:46:36;;;;;;;11.93;3.63;;;;;;;26.75;37.21;98166.59;5050806;28;20603;-71
2022/08/27 02:49:02;;;;;;;14.70;3.47;;;;;;;26.73;36.99;98163.34;5050957;28;20670;-71
2022/08/27 02:51:27;;;;;;;6.72;2.72;;;;;;;26.70;37.24;98159.28;5051244;28;20033;-71
2022/08/27 02:53:53;;;;;;;12.05;3.17;;;;;;;26.74;37.21;98165.81;5050979;28;20025;-71
2022/08/27 02:56:18;;;;;;;9.32;3.13;;;;;;;26.75;37.68;98166.59;5051213;28;20079;-71
2022/08/27 02:58:44;;;;;;;8.95;2.83;;;;;;;26.75;37.57;98156.69;5034388;28;20025;-71
2022/08/27 03:01:10;;;;;;;9.38;2.78;;;;;;;26.76;37.69;98162.84;5034074;28;20531;-71
2022/08/27 03:03:36;;;;;;;13.93;3.10;;;;;;;26.73;37.85;98156.13;5033952;28;20033;-72
2022/08/27 03:06:01;;;;;;;10.77;2.83;;;;;;;26.77;37.73;98164.50;5050912;28;20033;-71
2022/08/27 03:08:27;;;;;;;12.27;3.00;;;;;;;26.71;37.79;98151.00;5051020;28;20036;-71
2022/08/27 03:10:53;;;;;;;15.20;3.10;;;;;;;26.76;37.61;98162.84;5051196;28;20043;-71
2022/08/27 03:13:19;;;;;;;14.35;3.13;;;;;;;26.74;37.74;98160.44;5050419;28;20056;-71
2022/08/27 03:15:44;;;;;;;11.07;2.70;;;;;;;26.74;37.63;98165.81;5050480;28;20076;-71
2022/08/27 03:18:20;;;;;;;24.98;3.03;;;;;;;26.73;37.84;98166.03;5050102;28;20040;-71
2022/08/27 03:20:48;;;;;;;11.48;2.83;;;;;;;26.71;37.75;98171.63;5036288;28;20055;-71
2022/08/27 03:23:14;;;;;;;10.90;3.20;;;;;;;26.69;37.88;98171.84;5034201;28;20029;-71
2022/08/27 03:25:42;;;;;;;9.25;3.15;;;;;;;26.69;37.77;98179.06;5050921;28;20029;-71
2022/08/27 03:28:08;;;;;;;11.00;3.05;;;;;;;26.66;37.96;98187.56;5050707;28;20389;-71
2022/08/27 03:30:33;;;;;;;9.32;3.00;;;;;;;26.63;38.22;98179.97;5050577;28;20036;-71
2022/08/27 03:32:59;;;;;;;11.90;3.10;;;;;;;26.63;38.13;98186.16;5017629;28;20090;-71
2022/08/27 03:35:24;;;;;;;6.03;2.58;;;;;;;26.57;38.46;98171.03;5017537;28;20033;-71
2022/08/27 03:37:50;;;;;;;9.35;3.03;;;;;;;26.62;38.44;98179.16;5050987;28;20087;-71
2022/08/27 03:40:16;;;;;;;13.32;2.90;;;;;;;26.61;38.20;98185.53;5033806;28;20087;-71
2022/08/27 03:42:41;;;;;;;8.05;3.10;;;;;;;26.62;38.71;98184.50;5050673;28;20107;-71
2022/08/27 03:45:07;;;;;;;11.63;3.28;;;;;;;26.61;38.32;98182.06;5033269;28;20074;-71
2022/08/27 03:47:33;;;;;;;8.35;3.00;;;;;;;26.61;38.68;98192.78;5017694;28;20053;-71
2022/08/27 03:49:59;;;;;;;11.38;2.75;;;;;;;26.62;38.75;98189.88;5017314;28;20028;-71
2022/08/27 03:52:25;;;;;;;9.05;3.25;;;;;;;26.61;38.77;98185.53;5050309;28;20123;-71
2022/08/27 03:54:51;;;;;;;7.43;2.90;;;;;;;26.67;38.32;98189.19;5034080;28;20037;-71
2022/08/27 03:57:16;;;;;;;14.48;2.83;;;;;;;26.79;38.34;98183.81;5017498;28;20108;-71
2022/08/27 03:59:42;;;;;;;6.50;2.80;;;;;;;26.94;37.94;98192.16;5033372;28;20057;-71
2022/08/27 04:02:07;;;;;;;10.05;3.00;;;;;;;27.02;37.78;98193.66;5049999;28;20029;-71
2022/08/27 04:04:33;;;;;;;14.05;3.03;;;;;;;27.01;37.76;98190.19;5050400;28;20063;-71
2022/08/27 04:06:58;;;;;;;12.07;2.97;;;;;;;27.02;38.16;98202.50;5050681;28;20026;-72
2022/08/27 04:09:24;;;;;;;14.13;2.92;;;;;;;27.01;38.13;98198.22;5033818;28;20485;-71
2022/08/27 04:11:49;;;;;;;11.43;2.58;;;;;;;26.99;38.24;98180.75;5050143;28;20397;-72
2022/08/27 04:14:15;;;;;;;9.65;3.10;;;;;;;27.08;38.20;98198.06;5049778;28;20049;-72
2022/08/27 04:16:40;;;;;;;11.80;2.88;;;;;;;27.11;38.16;98202.94;5050214;28;20032;-73
2022/08/27 04:19:06;;;;;;;15.90;2.95;;;;;;;27.14;38.23;98194.44;5033678;28;20103;-73
2022/08/27 04:21:32;;;;;;;10.75;2.60;;;;;;;27.19;38.11;98201.78;5050270;28;20064;-73
2022/08/27 04:23:59;;;;;;;6.50;2.80;;;;;;;27.25;38.03;98198.13;5049103;28;20045;-72
2022/08/27 04:26:25;;;;;;;11.88;3.13;;;;;;;27.36;37.91;98210.72;5050547;28;20116;-72
2022/08/27 04:28:51;;;;;;;16.38;3.30;;;;;;;27.39;38.08;98201.34;5036483;28;20049;-72
2022/08/27 04:31:16;;;;;;;9.30;2.90;;;;;;;27.51;37.94;98204.81;5053781;28;20032;-71
2022/08/27 04:33:42;;;;;;;11.20;3.38;;;;;;;27.70;37.47;98201.94;5053741;28;20025;-72
2022/08/27 04:36:08;;;;;;;11.70;3.22;;;;;;;28.41;36.45;98202.28;5053626;28;20056;-72
2022/08/27 04:38:34;;;;;;;10.43;2.85;;;;;;;29.00;35.24;98209.00;5036386;28;20045;-72
2022/08/27 04:41:20;;;;;;;11.23;3.20;;;;;;;29.33;34.92;98199.19;5037032;28;20029;-72
2022/08/27 04:43:47;;;;;;;8.65;3.20;;;;;;;29.83;34.54;98210.75;5024552;28;20436;-72
2022/08/27 04:46:12;;;;;;;12.65;3.25;;;;;;;30.24;33.70;98216.47;5020574;28;20029;-72
2022/08/27 04:48:38;;;;;;;10.88;2.88;;;;;;;29.84;33.87;98209.69;5053068;28;20041;-73
2022/08/27 04:51:03;;;;;;;9.90;3.20;;;;;;;29.52;35.17;98211.22;5053382;28;20060;-72
2022/08/27 04:53:29;;;;;;;6.78;3.25;;;;;;;29.32;35.03;98202.94;5036685;28;20040;-73
2022/08/27 04:55:55;;;;;;;11.43;3.00;;;;;;;29.29;35.24;98217.72;5053225;28;20495;-73
2022/08/27 04:58:21;;;;;;;9.40;3.00;;;;;;;29.20;35.56;98221.91;5020110;28;20041;-73
2022/08/27 05:00:55;;;;;;;17.08;3.65;;;;;;;29.10;35.99;98224.44;5020154;28;20103;-73
2022/08/27 05:03:25;;;;;;;12.23;3.30;;;;;;;28.99;35.97;98223.53;5037479;28;20067;-72
2022/08/27 05:05:51;;;;;;;10.90;3.20;;;;;;;28.93;36.25;98230.69;5036985;28;20454;-73
2022/08/27 05:08:16;;;;;;;9.77;3.05;;;;;;;28.82;36.96;98227.06;5053039;28;20029;-73
2022/08/27 05:10:45;;;;;;;17.10;3.25;;;;;;;28.75;36.97;98231.81;5036531;28;20092;-73
2022/08/27 05:13:11;;;;;;;15.30;3.53;;;;;;;28.69;37.38;98232.78;5036094;28;20083;-73
2022/08/27 05:15:37;;;;;;;14.05;3.20;;;;;;;28.62;37.43;98229.44;5052515;28;20040;-73
2022/08/27 05:18:02;;;;;;;15.68;3.42;;;;;;;28.60;37.50;98232.38;5052600;28;20047;-72
2022/08/27 05:20:28;;;;;;;11.10;2.90;;;;;;;28.54;37.65;98233.34;5036084;28;20025;-73
2022/08/27 05:22:54;;;;;;;16.13;3.10;;;;;;;28.47;37.86;98230.03;5052397;28;20032;-72
2022/08/27 05:25:20;;;;;;;12.70;3.45;;;;;;;28.45;37.90;98232.13;5052357;28;20021;-73
2022/08/27 05:27:46;;;;;;;15.35;3.65;;;;;;;28.39;37.86;98223.19;5052476;28;20033;-73
2022/08/27 05:30:12;;;;;;;14.02;3.58;;;;;;;28.41;38.13;98226.44;5052674;28;20123;-73
2022/08/27 05:32:38;;;;;;;12.82;3.15;;;;;;;28.42;38.46;98232.66;5035786;28;20068;-73
2022/08/27 05:35:04;;;;;;;8.88;3.17;;;;;;;28.40;38.42;98229.38;5051439;28;20553;-73
2022/08/27 05:37:32;;;;;;;10.30;3.40;;;;;;;28.44;38.25;98231.31;5032084;28;20076;-73
2022/08/27 05:39:59;;;;;;;7.95;3.00;;;;;;;28.44;38.38;98230.53;5033809;28;20035;-72
2022/08/27 05:42:25;;;;;;;9.27;3.20;;;;;;;28.43;39.23;98240.44;5005818;28;20056;-72
2022/08/27 05:44:51;;;;;;;8.95;3.03;;;;;;;28.34;39.25;98233.88;5032327;28;20021;-72
2022/08/27 05:47:16;;;;;;;14.43;3.28;;;;;;;28.29;39.66;98237.28;5032324;28;20489;-73
2022/08/27 05:49:42;;;;;;;10.48;2.97;;;;;;;28.32;40.16;98246.69;5015959;28;20072;-72
2022/08/27 05:52:09;;;;;;;12.23;3.63;;;;;;;28.32;39.73;98244.84;5015918;28;20029;-71
2022/08/27 05:54:34;;;;;;;17.52;3.60;;;;;;;28.34;40.05;98248.09;4999727;28;20029;-71
2022/08/27 05:57:00;;;;;;;11.75;3.40;;;;;;;28.29;40.12;98234.59;5015378;28;20037;-72
2022/08/27 06:02:09;;;;;;;19.73;3.55;;;;;;;28.41;40.47;98255.16;5032386;28;20048;-74
2022/08/27 06:04:35;;;;;;;20.70;3.60;;;;;;;28.41;40.44;98258.66;5031341;28;20033;-73
2022/08/27 06:07:00;;;;;;;13.73;3.38;;;;;;;28.42;40.51;98262.97;5032085;28;20033;-72
2022/08/27 06:09:28;;;;;;;14.75;3.70;;;;;;;28.45;41.62;98259.81;4998941;28;20045;-72
2022/08/27 06:11:55;;;;;;;21.65;3.53;;;;;;;28.38;42.13;98253.78;5001542;28;20099;-82
2022/08/27 06:14:22;;;;;;;18.60;3.50;;;;;;;28.45;41.78;98262.47;5018192;28;20111;-77
2022/08/27 06:16:47;;;;;;;14.32;3.67;;;;;;;28.52;42.26;98257.75;4999133;28;20025;-80
2022/08/27 06:19:13;;;;;;;19.05;3.60;;;;;;;28.62;42.67;98257.13;5014159;28;20033;-84
2022/08/27 06:21:41;;;;;;;17.60;3.53;;;;;;;28.68;42.61;98253.44;5052118;28;20021;-82
2022/08/27 06:24:07;;;;;;;22.55;4.00;;;;;;;28.78;41.42;98266.22;5035675;28;20431;-90
2022/08/27 06:26:33;;;;;;;18.30;3.70;;;;;;;28.92;40.91;98269.34;5041059;28;20029;-91
2022/08/27 06:29:03;;;;;;;25.25;4.18;;;;;;;28.97;40.83;98276.66;5022261;28;20558;-90
2022/08/27 06:31:28;;;;;;;23.52;4.40;;;;;;;29.01;39.75;98275.13;5042512;28;20071;-89
2022/08/27 06:33:58;;;;;;;20.98;3.80;;;;;;;29.13;39.73;98277.69;5040561;28;20033;-84
2022/08/27 06:36:23;;;;;;;21.20;4.22;;;;;;;29.21;39.16;98277.28;5034778;28;20029;-88
2022/08/27 06:38:49;;;;;;;26.30;4.68;;;;;;;29.33;38.13;98274.47;5034913;28;20037;-84
2022/08/27 06:41:16;;;;;;;26.98;5.18;;;;;;;29.59;37.00;98281.75;5035199;28;20040;-86
2022/08/27 06:43:41;;;;;;;15.52;4.50;;;;;;;29.90;36.67;98282.13;5018198;28;20108;-80
2022/08/27 06:46:09;;;;;;;19.23;4.50;;;;;;;30.24;36.29;98283.78;5032298;28;20125;-79
2022/08/27 06:48:34;;;;;;;14.80;4.57;;;;;;;30.32;33.68;98283.28;5016893;28;20503;-79
2022/08/27 06:51:28;;;;;;;26.33;5.50;;;;;;;30.30;33.95;98282.75;5032657;28;20112;-82
2022/08/27 06:53:55;;;;;;;28.90;5.45;;;;;;;30.54;34.49;98287.81;5045044;28;20127;-78
2022/08/27 06:56:20;;;;;;;38.05;6.38;;;;;;;30.64;33.16;98295.94;5049728;28;20078;-79
2022/08/27 06:58:47;;;;;;;30.35;5.45;;;;;;;30.74;33.23;98300.56;5049177;28;20483;-85
2022/08/27 07:01:21;;;;;;;30.00;5.55;;;;;;;30.80;33.57;98302.25;5052760;28;20117;-82
2022/08/27 07:03:46;;;;;;;26.88;5.00;;;;;;;30.82;32.93;98310.88;5069363;28;20057;-77
2022/08/27 07:06:13;;;;;;;26.35;5.30;;;;;;;30.75;32.24;98305.72;5069403;28;20115;-77
2022/08/27 07:08:39;;;;;;;29.02;5.25;;;;;;;30.89;32.47;98307.97;5052512;28;20059;-83
2022/08/27 07:11:08;;;;;;;21.20;4.90;;;;;;;30.96;32.30;98313.91;5036046;28;20040;-78
2022/08/27 07:13:34;;;;;;;22.60;5.15;;;;;;;31.09;31.69;98310.81;5036470;28;20044;-83
2022/08/27 07:16:06;;;;;;;30.50;5.18;;;;;;;31.23;31.73;98302.22;5053311;28;20087;-81
2022/08/27 07:18:32;;;;;;;33.55;5.65;;;;;;;31.56;31.63;98320.75;5036891;28;20039;-83
2022/08/27 07:20:59;;;;;;;28.40;5.55;;;;;;;31.87;31.04;98315.44;5036700;28;20029;-85
2022/08/27 07:23:24;;;;;;;28.48;5.32;;;;;;;31.92;30.72;98306.53;5036116;28;20036;-80
2022/08/27 07:25:51;;;;;;;34.75;4.97;;;;;;;32.24;31.04;98308.22;5053041;28;20031;-84
2022/08/27 07:28:17;;;;;;;34.53;5.45;;;;;;;32.57;31.08;98306.06;5053517;28;20036;-79
2022/08/27 07:30:42;;;;;;;29.83;5.40;;;;;;;32.99;30.51;98310.34;5053356;28;20035;-80
2022/08/27 07:33:08;;;;;;;27.38;4.88;;;;;;;33.30;28.75;98310.25;5052833;28;20483;-76
2022/08/27 07:35:33;;;;;;;33.72;5.45;;;;;;;33.54;29.24;98313.94;5052915;28;20071;-75
2022/08/27 07:37:59;;;;;;;26.63;4.53;;;;;;;33.69;27.31;98312.25;5070463;28;20033;-78
2022/08/27 07:40:24;;;;;;;31.48;5.05;;;;;;;34.07;26.94;98315.28;5071489;28;20476;-76
2022/08/27 07:45:34;;;;;;;27.40;5.00;;;;;;;34.27;27.67;98318.97;5069436;28;20111;-79
2022/08/27 07:47:59;;;;;;;25.98;4.75;;;;;;;34.24;26.62;98306.81;5053456;28;20056;-78
2022/08/27 07:50:25;;;;;;;25.70;4.47;;;;;;;34.03;25.42;98315.06;5053912;28;20072;-84
2022/08/27 07:52:50;;;;;;;28.02;4.30;;;;;;;34.07;25.58;98310.69;5037104;28;20067;-89
2022/08/27 07:55:16;;;;;;;23.75;4.47;;;;;;;34.24;26.46;98317.66;5036107;28;20067;-80
2022/08/27 07:57:43;;;;;;;23.30;4.38;;;;;;;34.51;26.37;98303.59;5035980;28;20131;-79
2022/08/27 08:00:09;;;;;;;26.77;4.15;;;;;;;34.78;26.82;98303.09;5063834;28;20462;-80
2022/08/27 08:02:35;;;;;;;25.08;4.45;;;;;;;34.86;26.60;98309.78;5046789;28;20025;-83
2022/08/27 08:05:01;;;;;;;24.45;4.72;;;;;;;34.99;27.70;98319.13;5035394;28;20051;-84
2022/08/27 08:07:27;;;;;;;25.55;4.65;;;;;;;35.32;27.62;98305.78;5052854;28;20799;-87
2022/08/27 08:09:53;;;;;;;20.90;4.93;;;;;;;35.26;26.52;98306.94;5052212;28;20032;-81
2022/08/27 08:12:19;;;;;;;27.08;5.47;;;;;;;35.15;27.05;98314.34;5035722;28;20040;-89
2022/08/27 08:14:45;;;;;;;22.65;5.15;;;;;;;35.07;26.93;98310.38;5051881;28;20051;-83
2022/08/27 08:17:11;;;;;;;23.17;4.75;;;;;;;35.01;27.85;98305.28;5052861;28;20115;-89
2022/08/27 08:19:37;;;;;;;19.65;4.22;;;;;;;34.93;26.83;98307.56;5023236;28;20415;-79
2022/08/27 08:22:02;;;;;;;25.90;4.60;;;;;;;34.81;26.12;98307.13;5052188;28;20112;-79
2022/08/27 08:24:28;;;;;;;45.97;5.07;;;;;;;34.78;26.59;98313.13;5035435;28;20480;-80
2022/08/27 08:26:53;;;;;;;42.10;5.40;;;;;;;34.64;26.96;98304.81;5052462;28;20040;-79
2022/08/27 08:29:19;;;;;;;24.63;4.68;;;;;;;34.58;27.49;98309.47;5051499;28;20052;-82
2022/08/27 08:31:44;;;;;;;28.83;6.00;;;;;;;34.51;29.47;98309.00;5036378;28;20041;-89
2022/08/27 08:34:11;;;;;;;30.10;7.47;;;;;;;34.37;28.88;98316.97;5053056;28;20033;-84
2022/08/27 08:36:36;;;;;;;30.02;6.13;;;;;;;34.30;28.34;98321.94;5053218;28;20504;-90
2022/08/27 08:39:02;;;;;;;26.25;5.38;;;;;;;34.22;29.24;98312.47;5036518;28;20045;-83
2022/08/27 08:41:37;;;;;;;23.42;5.18;;;;;;;34.08;29.28;98319.63;5052251;28;20025;-80
2022/08/27 08:44:23;;;;;;;21.33;5.47;;;;;;;34.02;30.08;98309.91;5051396;28;20032;-87
2022/08/27 08:46:54;;;;;;;18.02;4.75;;;;;;;34.04;30.73;98319.34;5038863;28;20036;-91
2022/08/27 08:49:25;;;;;;;22.25;6.10;;;;;;;33.99;30.03;98318.59;5033549;28;20033;-82
2022/08/27 08:51:52;;;;;;;23.35;5.20;;;;;;;33.94;30.23;98316.75;5057591;28;20036;-89
2022/08/27 08:54:19;;;;;;;27.13;4.65;;;;;;;33.84;30.30;98311.38;5053860;28;20028;-82
2022/08/27 08:56:55;;;;;;;18.65;5.47;;;;;;;33.79;30.85;98309.50;5035493;28;20657;-86
2022/08/27 08:59:27;;;;;;;19.65;4.93;;;;;;;33.86;29.01;98309.22;5032464;28;20059;-81
2022/08/27 09:01:53;;;;;;;19.63;3.80;;;;;;;33.82;28.38;98314.34;5033967;28;20021;-74
2022/08/27 09:04:19;;;;;;;21.85;5.80;;;;;;;33.85;31.26;98307.59;5050033;28;20021;-79
2022/08/27 09:06:47;;;;;;;19.00;5.22;;;;;;;33.86;31.16;98312.72;5032733;28;20091;-78
2022/08/27 09:09:36;;;;;;;19.27;4.65;;;;;;;33.90;31.30;98312.97;5051811;28;20396;-78
2022/08/27 09:12:14;;;;;;;18.23;5.88;;;;;;;33.92;31.13;98309.97;5034735;28;20029;-79
2022/08/27 09:14:49;;;;;;;170.38;12.00;;;;;;;33.85;32.82;98307.59;5034857;28;20052;-78
2022/08/27 09:17:15;;;;;;;63.47;6.28;;;;;;;33.84;30.45;98308.66;5018558;28;20036;-82
2022/08/27 09:19:41;;;;;;;153.93;10.35;;;;;;;33.78;29.85;98309.78;5034697;28;20419;-80
2022/08/27 09:22:39;;;;;;;91.63;7.70;;;;;;;33.70;30.88;98301.19;5052589;28;20028;-85
2022/08/27 09:25:19;;;;;;;27.80;4.38;;;;;;;33.96;31.83;98305.63;5035022;28;20062;-78
2022/08/27 09:27:45;;;;;;;23.23;3.85;;;;;;;34.01;31.91;98306.38;5049999;28;20067;-77
2022/08/27 09:30:13;;;;;;;31.02;4.50;;;;;;;34.22;32.26;98293.53;5050852;28;20056;-79
2022/08/27 09:32:38;;;;;;;22.63;3.60;;;;;;;34.41;31.91;98303.66;5048728;28;20120;-78
2022/08/27 09:35:07;;;;;;;49.45;4.88;;;;;;;34.45;32.35;98303.94;5034169;28;20527;-77
2022/08/27 09:37:44;;;;;;;23.83;3.42;;;;;;;34.79;30.12;98299.28;5033683;28;20135;-80
2022/08/27 09:40:18;;;;;;;29.02;3.60;;;;;;;34.88;29.43;98302.16;5051119;28;20071;-80
2022/08/27 09:42:48;;;;;;;37.50;3.58;;;;;;;34.91;29.07;98301.59;5049342;28;20120;-79
2022/08/27 09:45:20;;;;;;;24.42;3.95;;;;;;;34.88;28.10;98301.38;5018715;28;20033;-79
2022/08/27 09:48:07;;;;;;;24.02;3.85;;;;;;;34.85;27.82;98294.59;5019173;28;20428;-67
2022/08/27 09:50:41;;;;;;;25.38;3.75;;;;;;;34.88;29.21;98287.81;5051968;28;20041;-68
2022/08/27 09:53:17;;;;;;;26.30;3.63;;;;;;;35.00;26.30;98284.69;5019360;28;20106;-68
2022/08/27 09:55:45;;;;;;;25.52;3.63;;;;;;;35.21;27.88;98288.78;5052099;28;20037;-67
2022/08/27 09:58:32;;;;;;;24.55;4.47;;;;;;;35.65;28.05;98297.75;5035667;28;20103;-67
2022/08/27 10:01:02;;;;;;;16.48;3.85;;;;;;;36.00;27.37;98293.72;5035168;28;20083;-68
2022/08/27 10:03:28;;;;;;;15.73;3.45;;;;;;;36.25;27.20;98282.78;5036138;28;20068;-67
2022/08/27 10:05:54;;;;;;;22.38;3.30;;;;;;;36.42;26.92;98293.09;5052004;28;20056;-68
2022/08/27 10:08:24;;;;;;;19.95;3.60;;;;;;;36.50;26.63;98295.94;5051772;28;20028;-68
2022/08/27 10:10:58;;;;;;;19.70;3.80;;;;;;;36.63;25.57;98288.91;5035597;28;20378;-67
2022/08/27 10:13:38;;;;;;;15.93;3.58;;;;;;;36.85;25.91;98290.19;5019619;28;20055;-68
2022/08/27 10:16:09;;;;;;;16.50;3.58;;;;;;;36.92;25.87;98282.44;5035122;28;20488;-68
2022/08/27 10:19:07;;;;;;;20.42;3.83;;;;;;;37.03;25.24;98291.19;5051791;28;20033;-68
2022/08/27 10:21:32;;;;;;;13.52;3.35;;;;;;;37.08;25.12;98291.88;4975554;28;20038;-68
2022/08/27 10:24:14;;;;;;;13.80;3.53;;;;;;;37.09;25.63;98295.44;4990757;28;20039;-68
2022/08/27 10:27:08;;;;;;;10.57;3.60;;;;;;;37.09;25.18;98296.22;4958888;28;20073;-68
2022/08/27 10:29:41;;;;;;;12.80;3.40;;;;;;;37.10;25.45;98295.13;4971684;28;20047;-68
2022/08/27 10:32:12;;;;;;;14.18;3.90;;;;;;;37.12;24.71;98294.81;4939993;28;20042;-68
2022/08/27 10:34:43;;;;;;;12.95;3.50;;;;;;;37.09;25.47;98296.22;4971919;28;20039;-67
2022/08/27 10:37:54;;;;;;;11.55;3.15;;;;;;;37.07;25.17;98297.66;4971958;28;20031;-68
2022/08/27 10:40:31;;;;;;;13.00;3.30;;;;;;;37.03;25.20;98294.72;4951951;29;20047;-67
2022/08/27 10:43:14;;;;;;;19.55;3.85;;;;;;;36.96;25.43;98283.44;4952601;28;20126;-67
2022/08/27 10:45:58;;;;;;;10.95;3.22;;;;;;;36.93;24.25;98282.13;4971342;28;20110;-67
2022/08/27 10:48:32;;;;;;;12.40;3.33;;;;;;;36.88;25.12;98284.94;4971520;28;20027;-68
2022/08/27 10:51:21;;;;;;;11.20;3.25;;;;;;;36.81;25.35;98287.25;4939498;28;20035;-67
2022/08/27 10:54:16;;;;;;;13.82;3.40;;;;;;;36.73;24.72;98285.22;4939372;28;20133;-68
2022/08/27 10:56:57;;;;;;;11.07;3.10;;;;;;;36.61;25.01;98276.72;4966160;28;20043;-68
2022/08/27 10:59:28;;;;;;;14.48;3.40;;;;;;;36.55;25.33;98274.09;4959723;28;20178;-67
2022/08/27 11:02:06;;;;;;;11.40;3.10;;;;;;;36.47;25.40;98276.69;4974527;28;20135;-68
2022/08/27 11:04:39;;;;;;;11.43;3.30;;;;;;;36.36;24.92;98270.66;4974639;28;20035;-67
2022/08/27 11:07:25;;;;;;;9.80;2.78;;;;;;;36.28;25.38;98268.59;5001954;28;20049;-68
2022/08/27 11:10:03;;;;;;;9.40;2.70;;;;;;;36.16;24.31;98264.41;5034942;28;20110;-67
2022/08/27 11:12:34;;;;;;;12.63;2.90;;;;;;;36.09;25.84;98276.75;5018792;28;20120;-67
2022/08/27 11:15:02;;;;;;;14.27;3.10;;;;;;;36.01;25.58;98272.81;5017273;28;20044;-68
2022/08/27 11:17:44;;;;;;;8.23;2.92;;;;;;;35.88;25.84;98274.34;5046507;28;20041;-68
2022/08/27 11:20:31;;;;;;;12.65;2.78;;;;;;;35.74;24.36;98268.84;5018356;28;20120;-68
2022/08/27 11:23:03;;;;;;;15.02;3.00;;;;;;;35.62;25.20;98261.13;5050546;28;20106;-67
2022/08/27 11:25:49;;;;;;;10.77;2.83;;;;;;;35.56;26.09;98262.31;5034091;28;20026;-69
2022/08/27 11:28:14;;;;;;;17.38;3.05;;;;;;;35.49;25.58;98268.09;5034350;28;20044;-67
2022/08/27 11:30:56;;;;;;;12.27;2.60;;;;;;;35.43;26.13;98266.56;5034137;28;20025;-68
2022/08/27 11:33:43;;;;;;;13.27;3.05;;;;;;;35.35;26.15;98263.72;5034080;28;20033;-69
2022/08/27 11:36:31;;;;;;;16.00;3.00;;;;;;;35.27;26.18;98254.31;5035535;28;20033;-69
2022/08/27 11:39:15;;;;;;;15.35;3.15;;;;;;;35.22;26.78;98257.03;5040017;28;20051;-68
2022/08/27 11:42:00;;;;;;;14.88;3.47;;;;;;;35.15;26.58;98249.25;5056120;28;20040;-68